Аэропорт
Магадан (UHMM)

 UHMM / GDX
ЗЦ Хабаровск
Магадан (UHMM)
Магадан (UHMM)
 59.91100, 150.72000  / 574 ft

 UHMM 191000Z 07002MPS 9999 NSC M17/M27 Q1012 RMK QFE744
 UHMM 182245Z 1900/2006 36005G10MPS 9999 SCT040 TEMPO 1900/1910 34003G08MPS
UHMM_AIP_0217
показать схемы
Название сценария Тип сценария Flight Simulator 9 Flight Simulator X Prepar3D v2 Prepar3D v3 Prepar3D v4 xPlane
"Welcome to Kolyma" UHMM for P3Dv4 by Shestenko Sergey Vladimirovich платный
uhmm-scenery-fs9-0811 бесплатный
UHMM_FSX_1.01 Andrew Bolowin бесплатный


2019 © VATRUS division (Privacy Policy)